Pagina principale
METAR-TAF:

METAR-TAF

Aeroporti :

Bari, Italia

Aeroporto di Bari-Palese

latitudine: 41-08N, longitudine: 016-47E, altezza: 34 m

Osservazione

Il bollettino è stato emesso 19 minuti fa, alle 13:20 UTC
Vento 16 kt da ovest, variando fra ovest/sud-ovest e ovest/nord-ovest
Temperature 27°C
Umidità 34%
Pressione 1009 hPa
Visibilità 10 km o più
Poco nuvoloso ad un'altezza di 4000 ft

METAR: LIBD 191320Z 26016KT 240V300 9999 FEW040 27/10 Q1009

Ora: 15:39 (13:39 UTC)

Previsione

Il bollettino è stato emesso 2 ore e 39 minuti fa, alle 11:00 UTC
Previsione valida dal 19 alle 12 UTC al 20 alle 12 UTC
Vento 12 kt da ovest
Visibilità 10 km o più
Nubi sparse ad un'altezza di 4000 ft
Temporaneamente
dal 19 alle 12 UTC al 19 alle 15 UTC
pioggia

TAF: LIBD 191100Z 1912/2012 28012KT 9999 SCT040 TEMPO 1912/1915 RA

Osservazioni e previsioni meteorologiche di più di 4000 aeroporti (messaggi METAR e TAF).

Le stazioni disponibili sono rappresentate dai dischi gialli e rossi sulla carta.

Puntare il mouse per vedere il nome della stazione.

Clicca sopra per visualizzare le osservazioni e previsioni meteorologiche.

Per cambiare la mappa : fare clic sui pulsanti verdi con una croce nera per ingrandire, il pulsante verde con un trattino per diminuire, o sulla freccia verde per le mappe adiacenti.


METAR-TAF: